Time;durP1;ratioP1;P1;durP2;ratioP2;P2;SDS_P1;SDS_P2;PMS_P1;PMS_P2;Temp;Humidity;BMP_temperature;BMP_pressure;BME280_temperature;BME280_humidity;BME280_pressure;Samples;Min_cycle;Max_cycle;Signal;HPM_P1;HPM_P2
2023/02/22 00:14:31;;;;;;;56.30;30.13;;;10.90;99.90;;;;;;5065011;28;20204;-74
2023/02/22 00:17:03;;;;;;;59.58;29.67;;;11.00;99.90;;;;;;5069772;28;20251;-73
2023/02/22 00:19:30;;;;;;;58.10;32.03;;;10.80;99.90;;;;;;5059561;28;20211;-72
2023/02/22 00:29:43;;;;;;;64.20;30.70;;;10.80;99.90;;;;;;5070229;28;20553;-73
2023/02/22 00:32:16;;;;;;;53.72;29.23;;;10.70;99.90;;;;;;5060984;28;20201;-74
2023/02/22 00:34:57;;;;;;;56.83;29.17;;;10.70;99.90;;;;;;5063101;28;20231;-74
2023/02/22 00:37:25;;;;;;;54.38;28.33;;;10.70;99.90;;;;;;5069648;28;20314;-73
2023/02/22 00:39:59;;;;;;;53.28;28.58;;;10.70;99.90;;;;;;5071130;28;20197;-73
2023/02/22 00:42:29;;;;;;;45.28;25.58;;;10.70;99.90;;;;;;5052972;28;20208;-73
2023/02/22 00:45:02;;;;;;;54.63;29.45;;;10.70;99.90;;;;;;5058001;28;20216;-73
2023/02/22 00:47:34;;;;;;;56.78;29.48;;;10.70;99.90;;;;;;5070897;28;20240;-73
2023/02/22 00:50:03;;;;;;;46.85;26.05;;;10.60;99.90;;;;;;5072855;28;20220;-73
2023/02/22 00:56:22;;;;;;;46.65;25.33;;;10.50;99.90;;;;;;5057679;28;20189;-76
2023/02/22 00:58:55;;;;;;;43.25;25.08;;;10.60;99.90;;;;;;5068033;28;20713;-74
2023/02/22 01:01:24;;;;;;;50.22;27.42;;;10.70;99.90;;;;;;5062410;28;20192;-73
2023/02/22 01:04:05;;;;;;;47.85;25.27;;;10.60;99.90;;;;;;5054589;28;20203;-73
2023/02/22 01:06:33;;;;;;;42.75;25.42;;;10.60;99.90;;;;;;5054838;28;20749;-73
2023/02/22 01:09:06;;;;;;;47.72;26.30;;;10.50;99.90;;;;;;5055821;28;20673;-73
2023/02/22 01:11:34;;;;;;;46.42;26.38;;;10.60;99.90;;;;;;5071951;28;20299;-72
2023/02/22 01:14:08;;;;;;;51.15;27.27;;;10.50;99.90;;;;;;5054322;28;20682;-72
2023/02/22 01:16:36;;;;;;;52.15;27.40;;;10.60;99.90;;;;;;5062899;28;20221;-73
2023/02/22 01:19:12;;;;;;;54.47;28.40;;;10.50;99.90;;;;;;5055307;28;20205;-73
2023/02/22 01:21:45;;;;;;;54.22;28.77;;;10.50;99.90;;;;;;5072768;28;20230;-74
2023/02/22 01:33:55;;;;;;;52.80;26.40;;;10.30;99.90;;;;;;5051137;28;20291;-73
2023/02/22 01:36:36;;;;;;;50.30;27.00;;;10.30;99.90;;;;;;5067834;28;20610;-74
2023/02/22 01:39:09;;;;;;;52.45;25.20;;;10.30;99.90;;;;;;5061750;28;20212;-73
2023/02/22 01:41:38;;;;;;;50.20;25.30;;;10.20;99.90;;;;;;5057145;28;20203;-74
2023/02/22 03:14:36;;;;;;;52.72;28.27;;;10.00;99.90;;;;;;5056740;28;20573;-73
2023/02/22 03:17:21;;;;;;;37.42;21.90;;;10.00;99.90;;;;;;5051436;28;20228;-74
2023/02/22 03:19:56;;;;;;;44.85;26.70;;;10.10;99.90;;;;;;5055039;28;20568;-74
2023/02/22 03:22:31;;;;;;;47.33;25.40;;;10.10;99.90;;;;;;5055060;28;20200;-72
2023/02/22 03:25:07;;;;;;;46.80;26.25;;;10.10;99.90;;;;;;5056392;28;20662;-74
2023/02/22 03:27:47;;;;;;;50.90;25.42;;;10.00;99.90;;;;;;5066818;28;20222;-73
2023/02/22 03:30:24;;;;;;;47.08;26.75;;;10.00;99.90;;;;;;5072501;28;20228;-73
2023/02/22 03:33:00;;;;;;;48.05;28.58;;;10.00;99.90;;;;;;5054982;28;20615;-73
2023/02/22 03:35:33;;;;;;;52.95;29.35;;;10.00;99.90;;;;;;5057949;28;20227;-73
2023/02/22 03:38:04;;;;;;;51.03;27.98;;;10.00;99.90;;;;;;5063903;28;20231;-72
2023/02/22 03:40:43;;;;;;;53.28;29.42;;;10.10;99.90;;;;;;5073928;28;20215;-73
2023/02/22 03:43:18;;;;;;;56.00;30.23;;;10.10;99.90;;;;;;5073340;28;20203;-73
2023/02/22 03:45:52;;;;;;;56.72;30.95;;;10.10;99.90;;;;;;5055423;28;20293;-73
2023/02/22 03:48:37;;;;;;;54.63;31.67;;;10.10;99.90;;;;;;5051931;28;20672;-74
2023/02/22 03:51:13;;;;;;;55.53;30.70;;;10.00;99.90;;;;;;5072141;28;20286;-73
2023/02/22 03:53:44;;;;;;;59.40;32.08;;;10.00;99.90;;;;;;5040168;28;20661;-73
2023/02/22 04:24:00;;;;;;;73.88;37.58;;;9.50;99.90;;;;;;5065778;28;20202;-73
2023/02/22 04:26:31;;;;;;;69.72;35.75;;;9.40;99.90;;;;;;5052342;28;20314;-73
2023/02/22 04:29:03;;;;;;;76.10;37.33;;;9.50;99.90;;;;;;5057772;28;20207;-74
2023/02/22 04:31:30;;;;;;;64.63;33.92;;;9.40;99.90;;;;;;5072696;28;20205;-73
2023/02/22 04:33:58;;;;;;;70.82;37.15;;;9.40;99.90;;;;;;5072934;28;20302;-73
2023/02/22 05:01:16;;;;;;;71.95;35.72;;;9.00;99.90;;;;;;5064842;28;20613;-73
2023/02/22 05:03:45;;;;;;;75.70;34.67;;;8.90;99.90;;;;;;5054434;28;20214;-74
2023/02/22 05:06:20;;;;;;;67.72;34.60;;;8.80;99.90;;;;;;5058848;28;20227;-74
2023/02/22 05:08:53;;;;;;;78.88;35.28;;;8.90;99.90;;;;;;5040486;28;20227;-74
2023/02/22 05:11:29;;;;;;;74.22;34.33;;;8.80;99.90;;;;;;5071865;28;20230;-73
2023/02/22 05:13:59;;;;;;;73.53;36.13;;;8.70;99.90;;;;;;5046710;28;20230;-72
2023/02/22 05:16:31;;;;;;;70.38;35.10;;;8.70;99.90;;;;;;5068248;28;20305;-73
2023/02/22 05:18:59;;;;;;;83.93;36.63;;;8.70;99.90;;;;;;5070399;28;20203;-74
2023/02/22 05:21:29;;;;;;;67.32;34.13;;;8.70;99.90;;;;;;5075980;28;20625;-74
2023/02/22 05:26:39;;;;;;;60.92;31.60;;;8.60;99.90;;;;;;5064597;28;20788;-74
2023/02/22 05:29:08;;;;;;;62.38;31.20;;;8.70;99.90;;;;;;5060724;28;20802;-73
2023/02/22 05:31:52;;;;;;;70.13;31.95;;;8.70;99.90;;;;;;5055161;28;20203;-72
2023/02/22 05:34:21;;;;;;;57.28;30.25;;;8.60;99.90;;;;;;5067778;28;20663;-73
2023/02/22 05:36:50;;;;;;;53.42;28.90;;;8.70;99.90;;;;;;5068823;28;20580;-74
2023/02/22 05:39:29;;;;;;;61.28;31.83;;;8.70;99.90;;;;;;5056635;28;20203;-74
2023/02/22 05:42:03;;;;;;;65.78;29.85;;;8.80;99.90;;;;;;5070998;28;20213;-74
2023/02/22 05:44:38;;;;;;;54.28;27.52;;;8.80;99.90;;;;;;5055404;28;20195;-74
2023/02/22 05:47:09;;;;;;;57.15;29.40;;;8.70;99.90;;;;;;5057444;28;20276;-73
2023/02/22 05:49:48;;;;;;;59.38;30.05;;;8.70;99.90;;;;;;5062895;28;20217;-74
2023/02/22 05:52:17;;;;;;;64.35;30.67;;;8.70;99.90;;;;;;5073668;28;20798;-73
2023/02/22 05:54:48;;;;;;;55.58;29.85;;;8.60;99.90;;;;;;5068579;28;20600;-73
2023/02/22 05:57:27;;;;;;;64.15;30.17;;;8.60;99.90;;;;;;5075078;28;20346;-71
2023/02/22 06:02:41;;;;;;;57.63;29.63;;;8.60;99.90;;;;;;5058384;28;20195;-73
2023/02/22 06:05:14;;;;;;;66.85;32.47;;;8.60;99.90;;;;;;5074970;28;20215;-73
2023/02/22 06:07:54;;;;;;;65.32;28.58;;;8.60;99.90;;;;;;5069300;28;20219;-73
2023/02/22 06:10:23;;;;;;;60.25;30.67;;;8.60;99.90;;;;;;5071368;28;20657;-75
2023/02/22 06:16:38;;;;;;;62.50;29.75;;;8.60;99.90;;;;;;5071964;28;20274;-72
2023/02/22 06:22:16;;;;;;;54.70;29.38;;;8.70;99.90;;;;;;5058086;28;20206;-73
2023/02/22 06:24:45;;;;;;;56.10;28.02;;;8.70;99.90;;;;;;5074716;28;20199;-73
2023/02/22 06:27:15;;;;;;;54.05;28.20;;;8.70;99.90;;;;;;5060245;28;20309;-74
2023/02/22 06:29:49;;;;;;;51.58;27.73;;;8.70;99.90;;;;;;5070122;28;20203;-74
2023/02/22 06:32:20;;;;;;;47.33;26.88;;;8.70;99.90;;;;;;5068945;28;20195;-73
2023/02/22 06:34:56;;;;;;;69.45;31.55;;;8.80;99.90;;;;;;5059301;28;20200;-72
2023/02/22 06:37:24;;;;;;;71.55;30.98;;;8.80;99.90;;;;;;5067257;28;20313;-75
2023/02/22 06:39:52;;;;;;;57.83;31.77;;;8.90;99.90;;;;;;5048439;28;20281;-72
2023/02/22 06:56:48;;;;;;;66.13;31.42;;;9.20;99.90;;;;;;5070438;28;20190;-74
2023/02/22 06:59:22;;;;;;;63.33;32.08;;;9.30;99.90;;;;;;5057282;28;20200;-73
2023/02/22 07:01:52;;;;;;;56.35;28.77;;;9.30;99.90;;;;;;5053961;28;20212;-75
2023/02/22 07:04:21;;;;;;;66.85;31.08;;;9.30;99.90;;;;;;5055104;28;20195;-74
2023/02/22 07:06:49;;;;;;;61.58;29.25;;;9.30;99.90;;;;;;5068141;28;20633;-73
2023/02/22 07:16:30;;;;;;;52.88;27.80;;;9.50;99.90;;;;;;5066713;28;20210;-74
2023/02/22 07:18:59;;;;;;;50.78;26.15;;;9.60;99.90;;;;;;5073443;28;20202;-73
2023/02/22 07:21:30;;;;;;;46.25;25.67;;;9.70;99.90;;;;;;5071833;28;20210;-73
2023/02/22 07:24:11;;;;;;;48.20;25.33;;;9.70;99.90;;;;;;5055716;28;20195;-74
2023/02/22 07:26:50;;;;;;;48.60;25.55;;;9.80;99.90;;;;;;5067174;28;20227;-73
2023/02/22 07:29:36;;;;;;;51.20;23.58;;;10.00;99.90;;;;;;5058327;28;20215;-74
2023/02/22 07:32:07;;;;;;;38.08;22.85;;;10.30;99.90;;;;;;5071616;28;20543;-72
2023/02/22 07:34:46;;;;;;;36.45;22.02;;;10.60;99.90;;;;;;5055262;28;20287;-71
2023/02/22 07:37:20;;;;;;;36.45;21.55;;;10.90;99.90;;;;;;5066395;28;20279;-72
2023/02/22 07:39:47;;;;;;;36.42;18.95;;;11.00;99.90;;;;;;5072198;28;20266;-74
2023/02/22 07:42:20;;;;;;;36.53;20.33;;;11.20;99.90;;;;;;5061995;28;20213;-74
2023/02/22 07:44:48;;;;;;;38.75;22.65;;;11.20;99.90;;;;;;5078657;28;20287;-72
2023/02/22 07:47:19;;;;;;;30.65;19.08;;;11.40;99.90;;;;;;5050331;28;20299;-74
2023/02/22 07:55:54;;;;;;;29.38;16.90;;;11.90;99.90;;;;;;5081751;22;20528;-74
2023/02/22 07:58:23;;;;;;;30.73;17.00;;;11.90;99.90;;;;;;5079367;28;20222;-74
2023/02/22 08:00:50;;;;;;;33.20;18.88;;;11.90;99.90;;;;;;5065098;28;20203;-72
2023/02/22 08:03:21;;;;;;;31.15;16.30;;;12.10;99.90;;;;;;5084968;28;20213;-72
2023/02/22 08:05:50;;;;;;;35.00;19.10;;;12.20;99.90;;;;;;5067427;28;20203;-72
2023/02/22 08:08:22;;;;;;;27.80;16.48;;;12.30;99.90;;;;;;5064637;28;20230;-72
2023/02/22 08:10:50;;;;;;;25.75;15.55;;;12.40;99.90;;;;;;5054995;28;20286;-73
2023/02/22 08:13:18;;;;;;;31.27;16.00;;;12.30;99.90;;;;;;5058453;28;20205;-71
2023/02/22 08:15:47;;;;;;;25.02;15.35;;;12.30;99.90;;;;;;5058436;28;20198;-72
2023/02/22 08:18:17;;;;;;;29.98;17.75;;;12.60;99.90;;;;;;5060315;28;20712;-71
2023/02/22 08:20:47;;;;;;;29.80;18.63;;;12.60;99.90;;;;;;5064374;28;20229;-72
2023/02/22 08:23:16;;;;;;;25.08;15.48;;;12.90;99.90;;;;;;5062400;28;20235;-73
2023/02/22 08:25:45;;;;;;;28.88;14.90;;;13.00;99.90;;;;;;5063089;28;20258;-73
2023/02/22 08:28:14;;;;;;;29.75;17.48;;;13.40;99.90;;;;;;5065379;28;20656;-72
2023/02/22 08:30:42;;;;;;;29.63;16.95;;;13.30;99.90;;;;;;5076581;28;20281;-73
2023/02/22 08:33:13;;;;;;;23.38;15.50;;;13.10;99.90;;;;;;5059815;28;20269;-73
2023/02/22 08:35:40;;;;;;;31.52;18.23;;;13.00;99.90;;;;;;5069184;28;20289;-73
2023/02/22 08:38:17;;;;;;;27.58;15.75;;;12.80;99.90;;;;;;5072265;28;20685;-73
2023/02/22 08:40:44;;;;;;;28.83;16.38;;;12.50;99.90;;;;;;5068756;28;20293;-72
2023/02/22 08:43:12;;;;;;;30.45;16.63;;;12.50;99.90;;;;;;5059006;28;20235;-73
2023/02/22 08:45:39;;;;;;;28.58;17.95;;;12.40;99.90;;;;;;5064382;28;20211;-73
2023/02/22 08:48:06;;;;;;;29.40;17.55;;;12.50;99.90;;;;;;5058117;28;20669;-72
2023/02/22 08:50:34;;;;;;;32.60;17.20;;;12.60;99.90;;;;;;5062237;28;20225;-72
2023/02/22 08:53:09;;;;;;;27.05;16.80;;;12.60;99.90;;;;;;5071782;28;20202;-73
2023/02/22 08:55:40;;;;;;;29.17;17.45;;;12.70;99.90;;;;;;5067103;28;20214;-72
2023/02/22 08:58:09;;;;;;;27.63;17.90;;;12.70;99.90;;;;;;5046392;28;20670;-74
2023/02/22 09:00:38;;;;;;;25.73;14.63;;;12.80;99.90;;;;;;5039477;28;20227;-72
2023/02/22 09:03:06;;;;;;;29.42;15.32;;;12.80;99.90;;;;;;5049873;28;20231;-73
2023/02/22 09:05:33;;;;;;;22.65;16.00;;;12.80;99.90;;;;;;5039722;28;20204;-73
2023/02/22 09:08:01;;;;;;;30.00;16.85;;;12.70;99.90;;;;;;5052640;28;20594;-73
2023/02/22 09:10:32;;;;;;;28.17;16.40;;;12.80;99.90;;;;;;5046468;28;20206;-74
2023/02/22 09:12:59;;;;;;;29.35;17.70;;;12.60;99.90;;;;;;5042779;28;20286;-74
2023/02/22 09:15:27;;;;;;;28.75;16.05;;;12.50;99.90;;;;;;5028947;28;20213;-73
2023/02/22 09:17:54;;;;;;;31.48;16.23;;;12.50;99.90;;;;;;5037504;28;20224;-72
2023/02/22 09:20:22;;;;;;;30.00;17.52;;;12.40;99.90;;;;;;5038527;28;20230;-72
2023/02/22 09:22:50;;;;;;;31.00;17.40;;;12.50;99.90;;;;;;5050093;28;20200;-72
2023/02/22 09:25:20;;;;;;;27.80;16.88;;;12.50;99.90;;;;;;5054911;28;20214;-70
2023/02/22 09:27:50;;;;;;;23.73;15.18;;;12.60;99.90;;;;;;5041846;28;20219;-72
2023/02/22 09:30:22;;;;;;;23.40;14.80;;;12.50;99.90;;;;;;5040179;28;20196;-73
2023/02/22 09:32:50;;;;;;;23.08;14.63;;;12.50;99.90;;;;;;5047484;28;20196;-73
2023/02/22 09:35:17;;;;;;;28.63;17.25;;;12.70;99.90;;;;;;5045907;28;20291;-73
2023/02/22 09:37:44;;;;;;;21.95;14.80;;;13.20;99.90;;;;;;5040226;28;20675;-73
2023/02/22 09:40:23;;;;;;;26.92;15.60;;;13.80;99.90;;;;;;5040322;28;20209;-73
2023/02/22 09:43:03;;;;;;;26.85;16.35;;;14.30;99.90;;;;;;5046188;28;20218;-74
2023/02/22 09:45:35;;;;;;;26.20;15.30;;;14.80;99.90;;;;;;5039487;28;20646;-73
2023/02/22 09:48:07;;;;;;;24.13;14.20;;;15.30;99.90;;;;;;5040487;28;20511;-74
2023/02/22 09:50:41;;;;;;;23.67;14.87;;;16.10;99.90;;;;;;5039260;28;20457;-71
2023/02/22 09:53:28;;;;;;;26.03;15.50;;;17.00;99.90;;;;;;5025899;28;20459;-73
2023/02/22 09:55:58;;;;;;;23.23;14.73;;;17.80;99.90;;;;;;5036510;28;20541;-73
2023/02/22 09:58:32;;;;;;;19.97;13.40;;;17.90;99.90;;;;;;5064848;28;20476;-74
2023/02/22 10:01:25;;;;;;;22.07;14.70;;;17.50;99.90;;;;;;5044791;28;20947;-72
2023/02/22 10:03:59;;;;;;;22.87;15.30;;;17.50;99.90;;;;;;5073471;28;20446;-72
2023/02/22 10:06:26;;;;;;;23.57;16.93;;;17.50;99.90;;;;;;5047474;28;20462;-73
2023/02/22 10:08:58;;;;;;;28.60;15.73;;;17.00;99.90;;;;;;5075473;28;20466;-72
2023/02/22 10:11:37;;;;;;;24.07;16.67;;;16.80;99.90;;;;;;5061064;28;20456;-72
2023/02/22 10:14:26;;;;;;;27.30;15.93;;;16.90;99.90;;;;;;5039821;28;20442;-72
2023/02/22 10:17:02;;;;;;;24.47;14.53;;;16.70;99.90;;;;;;5068905;28;20469;-72
2023/02/22 10:19:37;;;;;;;24.00;14.83;;;16.40;99.90;;;;;;5080073;28;20540;-72
2023/02/22 10:22:21;;;;;;;21.40;14.77;;;16.30;99.90;;;;;;5054503;28;20451;-70
2023/02/22 10:24:58;;;;;;;22.00;14.47;;;16.40;99.90;;;;;;5062116;28;20441;-71
2023/02/22 10:27:31;;;;;;;24.30;16.23;;;15.90;99.90;;;;;;5072896;28;20519;-72
2023/02/22 10:30:07;;;;;;;28.40;17.07;;;15.40;99.90;;;;;;5073082;28;20205;-72
2023/02/22 10:32:44;;;;;;;26.75;16.45;;;15.40;99.90;;;;;;5058942;28;20435;-73
2023/02/22 10:35:21;;;;;;;24.15;15.15;;;15.30;99.90;;;;;;5050535;28;20237;-72
2023/02/22 10:37:52;;;;;;;25.08;15.90;;;15.00;99.90;;;;;;5047734;28;20305;-72
2023/02/22 10:40:30;;;;;;;28.35;14.55;;;15.30;99.90;;;;;;5069300;28;20703;-72
2023/02/22 10:42:59;;;;;;;26.43;15.57;;;15.30;99.90;;;;;;5071199;28;20213;-73
2023/02/22 10:45:31;;;;;;;22.43;14.23;;;15.40;99.90;;;;;;5068287;28;20476;-72
2023/02/22 10:47:59;;;;;;;22.40;14.20;;;15.30;99.90;;;;;;5063162;28;20488;-72
2023/02/22 10:50:30;;;;;;;28.80;16.33;;;15.20;99.90;;;;;;5071644;28;20480;-73
2023/02/22 10:52:57;;;;;;;25.73;15.55;;;14.70;99.90;;;;;;5040388;28;20459;-73
2023/02/22 10:55:24;;;;;;;25.00;16.05;;;14.50;99.90;;;;;;5060759;28;20195;-72
2023/02/22 10:58:00;;;;;;;25.73;16.65;;;14.20;99.90;;;;;;5064033;28;20266;-72
2023/02/22 11:00:36;;;;;;;27.58;16.73;;;14.20;99.90;;;;;;5052942;28;20207;-73
2023/02/22 11:03:06;;;;;;;26.23;15.88;;;14.00;99.90;;;;;;5041964;28;20206;-72
2023/02/22 11:05:36;;;;;;;26.10;17.65;;;14.10;99.90;;;;;;5064822;28;20296;-73
2023/02/22 11:08:22;;;;;;;23.38;16.10;;;14.40;99.90;;;;;;5068806;28;20320;-73
2023/02/22 11:10:50;;;;;;;25.45;16.25;;;14.40;99.90;;;;;;5046780;28;20288;-75
2023/02/22 11:13:24;;;;;;;21.38;14.25;;;14.40;99.90;;;;;;5066032;28;20260;-73
2023/02/22 11:15:53;;;;;;;27.73;17.25;;;14.50;99.90;;;;;;5065942;28;20197;-72
2023/02/22 11:18:25;;;;;;;30.13;16.95;;;14.60;99.90;;;;;;5063886;28;20202;-73
2023/02/22 11:21:01;;;;;;;24.15;15.85;;;14.50;99.90;;;;;;5061732;28;20289;-72
2023/02/22 11:23:28;;;;;;;26.48;16.98;;;14.60;99.90;;;;;;5068411;28;20276;-74
2023/02/22 11:26:04;;;;;;;22.85;15.30;;;14.70;99.90;;;;;;5077594;28;20233;-73
2023/02/22 11:28:31;;;;;;;28.48;17.38;;;14.70;99.90;;;;;;5064988;28;20222;-72
2023/02/22 11:31:13;;;;;;;22.30;16.05;;;14.80;99.90;;;;;;5080243;28;20234;-72
2023/02/22 11:33:46;;;;;;;25.02;17.10;;;14.60;99.90;;;;;;5060001;28;20290;-71
2023/02/22 11:36:29;;;;;;;32.30;19.55;;;14.60;99.90;;;;;;5068664;28;20223;-72
2023/02/22 11:38:59;;;;;;;25.58;16.70;;;14.60;99.90;;;;;;5062606;28;20195;-72
2023/02/22 11:41:32;;;;;;;26.48;17.48;;;14.60;99.90;;;;;;5071185;28;20211;-72
2023/02/22 11:44:14;;;;;;;27.73;17.02;;;14.50;99.90;;;;;;5074327;28;20286;-73
2023/02/22 11:46:43;;;;;;;24.50;16.88;;;14.50;99.90;;;;;;5079984;28;20711;-72
2023/02/22 11:49:12;;;;;;;24.13;17.13;;;14.50;99.90;;;;;;5072257;28;20298;-72
2023/02/22 11:51:59;;;;;;;25.13;16.55;;;14.40;99.90;;;;;;5075742;28;20275;-72
2023/02/22 11:54:47;;;;;;;29.85;18.60;;;14.40;99.90;;;;;;5055535;28;20261;-71
2023/02/22 11:57:32;;;;;;;28.40;18.58;;;14.40;99.90;;;;;;5046532;28;20248;-71
2023/02/22 12:00:11;;;;;;;28.17;18.65;;;14.40;99.90;;;;;;5055965;28;20296;-73
2023/02/22 12:02:54;;;;;;;25.42;17.33;;;14.30;99.90;;;;;;5063512;28;20203;-73
2023/02/22 12:05:36;;;;;;;29.10;17.70;;;14.20;99.90;;;;;;5050827;28;20207;-71
2023/02/22 12:08:19;;;;;;;27.58;19.40;;;14.00;99.90;;;;;;5062204;28;20310;-72
2023/02/22 12:10:59;;;;;;;24.42;16.48;;;14.00;99.90;;;;;;5038911;28;20211;-71
2023/02/22 12:13:39;;;;;;;25.63;15.57;;;14.00;99.90;;;;;;5029858;28;20227;-72
2023/02/22 12:16:16;;;;;;;25.85;15.82;;;14.10;99.90;;;;;;5051692;28;20231;-75
2023/02/22 12:18:59;;;;;;;30.42;19.50;;;14.10;99.90;;;;;;5056376;28;20200;-72
2023/02/22 12:21:28;;;;;;;26.70;15.55;;;14.10;99.90;;;;;;5033393;28;20205;-71
2023/02/22 12:24:02;;;;;;;27.15;16.52;;;14.10;99.90;;;;;;5055799;28;20194;-73
2023/02/22 12:26:33;;;;;;;24.02;17.02;;;14.10;99.90;;;;;;5053472;28;20255;-72
2023/02/22 12:29:07;;;;;;;28.60;19.02;;;14.00;99.90;;;;;;5062744;28;20697;-72
2023/02/22 12:31:39;;;;;;;29.15;18.50;;;14.00;99.90;;;;;;5051212;28;20207;-74
2023/02/22 12:34:16;;;;;;;25.50;17.30;;;14.00;99.90;;;;;;5053854;28;20579;-73
2023/02/22 12:36:50;;;;;;;26.63;17.90;;;14.00;99.90;;;;;;5054018;28;20697;-71
2023/02/22 12:39:39;;;;;;;30.08;16.13;;;14.10;99.90;;;;;;5048661;28;20235;-72
2023/02/22 12:42:16;;;;;;;24.58;17.38;;;14.10;99.90;;;;;;5048950;28;20203;-72
2023/02/22 12:44:48;;;;;;;27.55;17.30;;;14.10;99.90;;;;;;5052381;28;20235;-72
2023/02/22 12:47:19;;;;;;;25.77;15.82;;;14.10;99.90;;;;;;5049405;28;20722;-72
2023/02/22 12:49:55;;;;;;;28.77;17.15;;;14.20;99.90;;;;;;5044123;28;20223;-72
2023/02/22 12:52:40;;;;;;;34.55;18.50;;;14.10;99.90;;;;;;5032251;28;20291;-73
2023/02/22 12:55:14;;;;;;;26.17;16.30;;;14.10;99.90;;;;;;5023551;28;20240;-72
2023/02/22 12:57:47;;;;;;;26.50;15.50;;;14.10;99.90;;;;;;5045499;28;20240;-71
2023/02/22 13:00:21;;;;;;;28.63;17.88;;;14.10;99.90;;;;;;5067826;28;20339;-72
2023/02/22 13:02:57;;;;;;;28.40;17.45;;;14.20;99.90;;;;;;5068601;28;20230;-72
2023/02/22 13:05:29;;;;;;;26.58;16.83;;;14.30;99.90;;;;;;5051480;28;20209;-71
2023/02/22 13:08:13;;;;;;;27.98;15.70;;;14.30;99.90;;;;;;5071503;28;20322;-72
2023/02/22 13:10:53;;;;;;;22.08;16.20;;;14.30;99.90;;;;;;5058544;28;20241;-72
2023/02/22 13:13:30;;;;;;;27.27;15.88;;;14.30;99.90;;;;;;5067448;28;20241;-72
2023/02/22 13:16:04;;;;;;;26.38;17.42;;;14.30;99.90;;;;;;5065645;28;20213;-70
2023/02/22 13:18:37;;;;;;;29.20;17.77;;;14.40;99.90;;;;;;5076038;28;20293;-71
2023/02/22 13:21:15;;;;;;;24.88;17.27;;;14.30;99.90;;;;;;5066453;28;20204;-72
2023/02/22 13:23:50;;;;;;;25.00;17.15;;;14.30;99.90;;;;;;5067166;28;20615;-72
2023/02/22 13:26:24;;;;;;;24.42;18.50;;;14.30;99.90;;;;;;5070200;28;20227;-71
2023/02/22 13:28:57;;;;;;;31.33;18.10;;;14.30;99.90;;;;;;5056747;28;20279;-72
2023/02/22 13:31:54;;;;;;;23.73;16.02;;;14.30;99.90;;;;;;5073328;28;20211;-72
2023/02/22 13:34:49;;;;;;;25.20;18.52;;;14.30;99.90;;;;;;5063754;28;20205;-71
2023/02/22 13:37:44;;;;;;;23.08;16.88;;;14.40;99.90;;;;;;5072887;28;20224;-72
2023/02/22 13:40:37;;;;;;;23.23;15.90;;;14.40;99.90;;;;;;5092808;28;20199;-71
2023/02/22 13:43:28;;;;;;;24.88;18.83;;;14.30;99.90;;;;;;5074639;28;20223;-72
2023/02/22 13:46:36;;;;;;;27.95;18.48;;;14.20;99.90;;;;;;5074032;28;20257;-73
2023/02/22 13:49:32;;;;;;;32.45;19.38;;;14.20;99.90;;;;;;5078719;28;20215;-72
2023/02/22 13:52:03;;;;;;;28.05;17.83;;;14.30;99.90;;;;;;5069587;28;20238;-71
2023/02/22 13:54:39;;;;;;;29.10;19.42;;;14.30;99.90;;;;;;5073248;28;20282;-72
2023/02/22 13:57:19;;;;;;;23.38;16.90;;;14.30;99.90;;;;;;5058442;28;20316;-72
2023/02/22 13:59:47;;;;;;;31.50;18.00;;;14.30;99.90;;;;;;5036314;28;20231;-71
2023/02/22 14:02:35;;;;;;;23.85;17.50;;;14.40;99.90;;;;;;5048893;28;20200;-71
2023/02/22 14:05:50;;;;;;;26.02;16.25;;;14.40;99.90;;;;;;5049024;28;20207;-71
2023/02/22 14:08:42;;;;;;;24.38;16.33;;;14.50;99.90;;;;;;5015656;28;20708;-72
2023/02/22 14:11:52;;;;;;;27.98;17.02;;;14.40;99.90;;;;;;5007768;28;20208;-73
2023/02/22 14:14:21;;;;;;;30.98;16.92;;;14.40;99.90;;;;;;5033915;28;20215;-72
2023/02/22 14:17:25;;;;;;;28.38;17.30;;;14.20;99.90;;;;;;5050705;28;20591;-72
2023/02/22 14:20:29;;;;;;;28.90;19.02;;;14.30;99.90;;;;;;5038593;28;20200;-72
2023/02/22 14:23:18;;;;;;;24.65;17.55;;;14.20;99.90;;;;;;5036832;28;20609;-72
2023/02/22 14:25:45;;;;;;;30.95;18.20;;;14.30;99.90;;;;;;5045673;28;20196;-73
2023/02/22 14:28:35;;;;;;;25.05;18.00;;;14.30;99.90;;;;;;5037395;28;20236;-71
2023/02/22 14:31:11;;;;;;;22.00;16.35;;;14.30;99.90;;;;;;5042837;28;20283;-72
2023/02/22 14:33:59;;;;;;;22.52;17.25;;;14.30;99.90;;;;;;5053601;28;20212;-71
2023/02/22 14:36:33;;;;;;;35.03;18.20;;;14.30;99.90;;;;;;5054379;28;20220;-72
2023/02/22 14:39:11;;;;;;;29.75;18.27;;;14.30;99.90;;;;;;5027779;28;20204;-72
2023/02/22 14:41:43;;;;;;;34.90;18.20;;;14.30;99.90;;;;;;5047915;28;20287;-74
2023/02/22 14:44:16;;;;;;;27.67;16.52;;;14.40;99.90;;;;;;5044846;28;20472;-73
2023/02/22 14:46:48;;;;;;;29.63;17.83;;;14.30;99.90;;;;;;5042819;28;20675;-73
2023/02/22 14:49:19;;;;;;;31.10;19.55;;;14.30;99.90;;;;;;5048288;28;20220;-73
2023/02/22 14:51:54;;;;;;;27.58;16.80;;;14.30;99.90;;;;;;5044138;28;20669;-73
2023/02/22 14:54:27;;;;;;;25.58;17.80;;;14.20;99.90;;;;;;5026346;28;20559;-72
2023/02/22 14:57:13;;;;;;;24.42;17.38;;;14.20;99.90;;;;;;5057457;28;20252;-71
2023/02/22 15:00:10;;;;;;;25.23;18.33;;;14.20;99.90;;;;;;5062209;28;20202;-73
2023/02/22 15:02:41;;;;;;;27.10;18.13;;;14.20;99.90;;;;;;5065027;28;20230;-72
2023/02/22 15:05:13;;;;;;;23.00;17.40;;;14.20;99.90;;;;;;5064961;28;20228;-73
2023/02/22 15:07:51;;;;;;;26.08;18.20;;;14.20;99.90;;;;;;5062350;28;20219;-73
2023/02/22 15:10:23;;;;;;;24.63;16.50;;;14.20;99.90;;;;;;5060266;28;20227;-72
2023/02/22 15:13:08;;;;;;;31.13;17.95;;;14.10;99.90;;;;;;5063305;28;20653;-73
2023/02/22 15:15:42;;;;;;;29.33;18.63;;;14.00;99.90;;;;;;5061094;28;20231;-71
2023/02/22 15:18:20;;;;;;;32.60;19.58;;;13.90;99.90;;;;;;5061885;28;20227;-72
2023/02/22 15:20:54;;;;;;;33.35;19.38;;;13.90;99.90;;;;;;5064198;28;20645;-73
2023/02/22 15:23:22;;;;;;;28.55;18.00;;;13.80;99.90;;;;;;5063715;28;20312;-72
2023/02/22 15:25:50;;;;;;;27.80;18.52;;;13.80;99.90;;;;;;5059971;28;20266;-71
2023/02/22 15:28:18;;;;;;;30.85;18.60;;;13.70;99.90;;;;;;5071232;28;20210;-72
2023/02/22 15:30:46;;;;;;;30.23;19.20;;;13.70;99.90;;;;;;5058666;28;20286;-72
2023/02/22 15:33:22;;;;;;;28.65;17.55;;;13.70;99.90;;;;;;5062119;28;20207;-72
2023/02/22 15:35:54;;;;;;;25.65;17.25;;;13.70;99.90;;;;;;5058444;28;20202;-73
2023/02/22 15:38:27;;;;;;;30.98;20.95;;;13.70;99.90;;;;;;5068858;28;20207;-73
2023/02/22 15:41:01;;;;;;;25.00;18.17;;;13.60;99.90;;;;;;5064066;28;20191;-73
2023/02/22 15:43:30;;;;;;;29.75;17.33;;;13.60;99.90;;;;;;5059567;28;20297;-72
2023/02/22 15:45:59;;;;;;;29.15;19.83;;;13.50;99.90;;;;;;5065333;28;20265;-72
2023/02/22 15:48:30;;;;;;;28.73;18.50;;;13.40;99.90;;;;;;5058374;28;20298;-72
2023/02/22 15:51:12;;;;;;;26.80;17.48;;;13.50;99.90;;;;;;5062738;28;20282;-72
2023/02/22 15:53:43;;;;;;;32.78;18.77;;;13.50;99.90;;;;;;5062972;28;20278;-72
2023/02/22 15:56:14;;;;;;;38.22;19.58;;;13.40;99.90;;;;;;5056276;28;20231;-73
2023/02/22 15:58:43;;;;;;;28.70;19.27;;;13.50;99.90;;;;;;5046917;28;20382;-71
2023/02/22 16:01:15;;;;;;;25.40;17.52;;;13.30;99.90;;;;;;5040186;28;20694;-73
2023/02/22 16:03:47;;;;;;;29.90;18.00;;;13.30;99.90;;;;;;5049000;28;20199;-73
2023/02/22 16:06:21;;;;;;;29.55;19.02;;;13.30;99.90;;;;;;5046624;28;20242;-73
2023/02/22 16:08:49;;;;;;;26.92;17.95;;;13.30;99.90;;;;;;5044994;28;20226;-72
2023/02/22 16:11:28;;;;;;;30.10;19.27;;;13.30;99.90;;;;;;5051638;28;20234;-72
2023/02/22 16:13:59;;;;;;;25.50;17.30;;;13.30;99.90;;;;;;5052394;28;20206;-71
2023/02/22 16:16:31;;;;;;;27.15;18.92;;;13.20;99.90;;;;;;5050450;28;20453;-71
2023/02/22 16:19:33;;;;;;;30.60;18.48;;;13.20;99.90;;;;;;5054839;28;20659;-71
2023/02/22 16:22:02;;;;;;;30.25;20.30;;;13.20;99.90;;;;;;5052900;28;20201;-74
2023/02/22 16:24:31;;;;;;;29.80;19.50;;;13.10;99.90;;;;;;5043216;28;20583;-74
2023/02/22 16:27:17;;;;;;;25.65;19.58;;;13.10;99.90;;;;;;5053643;28;20303;-73
2023/02/22 16:29:45;;;;;;;37.20;24.30;;;13.10;99.90;;;;;;5045374;28;20207;-72
2023/02/22 16:32:14;;;;;;;29.30;19.45;;;13.00;99.90;;;;;;5044774;28;20243;-75
2023/02/22 16:34:42;;;;;;;35.08;19.83;;;13.10;99.90;;;;;;5052187;28;20262;-72
2023/02/22 16:37:22;;;;;;;31.15;18.88;;;12.90;99.90;;;;;;5051259;28;20251;-74
2023/02/22 16:39:51;;;;;;;28.08;20.13;;;12.90;99.90;;;;;;5040290;28;20215;-71
2023/02/22 16:42:22;;;;;;;28.95;19.58;;;12.90;99.90;;;;;;5052118;28;20207;-73